Time;durP1;ratioP1;P1;durP2;ratioP2;P2;SDS_P1;SDS_P2;PMS_P1;PMS_P2;Temp;Humidity;BMP_temperature;BMP_pressure;BME280_temperature;BME280_humidity;BME280_pressure;Samples;Min_cycle;Max_cycle;Signal;HPM_P1;HPM_P2
2021/06/02 00:00:38;;;;;;;8.45;6.15;;;13.60;99.90;;;;;;4180133;28;20029;-74
2021/06/02 00:02:49;;;;;;;10.10;6.53;;;13.60;99.90;;;;;;4164986;28;20508;-74
2021/06/02 00:04:52;;;;;;;7.10;5.80;;;13.60;99.90;;;;;;4165036;28;20176;-74
2021/06/02 00:06:58;;;;;;;10.88;7.07;;;13.50;99.90;;;;;;4163722;28;20471;-74
2021/06/02 00:09:00;;;;;;;9.20;7.63;;;13.50;99.90;;;;;;4163157;28;20037;-74
2021/06/02 00:11:05;;;;;;;10.25;7.97;;;13.40;99.90;;;;;;4163060;28;20100;-75
2021/06/02 00:13:07;;;;;;;9.68;7.32;;;13.30;99.90;;;;;;4163413;28;20021;-73
2021/06/02 00:15:09;;;;;;;6.70;6.00;;;13.30;99.90;;;;;;4164590;28;20539;-75
2021/06/02 00:17:11;;;;;;;8.77;7.90;;;13.20;99.90;;;;;;4163272;28;20069;-74
2021/06/02 00:19:11;;;;;;;8.77;7.03;;;13.20;99.90;;;;;;4162995;28;20074;-75
2021/06/02 00:21:12;;;;;;;7.70;6.47;;;13.10;99.90;;;;;;4164971;28;20022;-74
2021/06/02 00:23:13;;;;;;;7.70;6.78;;;13.10;99.90;;;;;;4163068;28;20032;-75
2021/06/02 00:25:14;;;;;;;9.65;6.72;;;13.00;99.90;;;;;;4160356;28;20079;-73
2021/06/02 00:27:15;;;;;;;11.38;7.85;;;13.00;99.90;;;;;;4159250;28;20079;-73
2021/06/02 00:29:16;;;;;;;11.48;7.93;;;12.90;99.90;;;;;;4164457;28;20441;-74
2021/06/02 00:31:18;;;;;;;11.55;7.53;;;12.90;99.90;;;;;;4162957;28;20088;-75
2021/06/02 00:33:19;;;;;;;12.27;7.68;;;12.90;99.90;;;;;;4163131;28;20057;-74
2021/06/02 00:35:20;;;;;;;10.98;8.35;;;12.90;99.90;;;;;;4163227;28;20440;-74
2021/06/02 00:37:22;;;;;;;11.90;8.48;;;12.80;99.90;;;;;;4162818;28;20037;-74
2021/06/02 00:39:23;;;;;;;11.43;8.23;;;12.80;99.90;;;;;;4163101;28;20032;-75
2021/06/02 00:41:24;;;;;;;9.10;7.80;;;12.80;99.90;;;;;;4164378;28;20531;-75
2021/06/02 00:43:27;;;;;;;10.65;7.88;;;12.80;99.90;;;;;;4164016;28;20033;-73
2021/06/02 00:45:31;;;;;;;9.98;8.98;;;12.80;99.90;;;;;;4163052;28;20076;-74
2021/06/02 00:47:36;;;;;;;9.30;8.07;;;12.90;99.90;;;;;;4162816;28;20117;-74
2021/06/02 00:49:37;;;;;;;10.73;7.90;;;13.00;99.90;;;;;;4162791;28;20507;-75
2021/06/02 00:51:37;;;;;;;10.82;9.45;;;12.90;99.90;;;;;;4162292;28;20029;-75
2021/06/02 00:53:38;;;;;;;15.43;10.30;;;12.90;99.90;;;;;;4163784;28;20042;-74
2021/06/02 00:55:40;;;;;;;11.23;10.00;;;12.90;99.90;;;;;;4163838;28;20035;-74
2021/06/02 00:57:52;;;;;;;11.32;9.07;;;12.90;99.90;;;;;;4163522;28;20108;-74
2021/06/02 01:00:06;;;;;;;13.25;10.70;;;12.90;99.90;;;;;;4161285;28;20063;-74
2021/06/02 01:02:14;;;;;;;10.57;9.48;;;12.90;99.90;;;;;;4162416;28;20121;-74
2021/06/02 01:04:16;;;;;;;13.60;10.57;;;12.90;99.90;;;;;;4162837;28;20176;-75
2021/06/02 01:06:18;;;;;;;12.52;9.63;;;12.90;99.90;;;;;;4161461;28;20485;-73
2021/06/02 01:08:21;;;;;;;13.50;10.65;;;12.90;99.90;;;;;;4161173;28;20116;-73
2021/06/02 01:10:22;;;;;;;;;;;12.90;99.90;;;;;;4162290;28;20053;-74
2021/06/02 01:12:25;;;;;;;15.38;10.27;;;12.90;99.90;;;;;;4177710;28;19909;-74
2021/06/02 01:14:29;;;;;;;11.77;9.70;;;12.90;99.90;;;;;;4177578;28;20538;-75
2021/06/02 01:16:33;;;;;;;;;;;12.90;99.90;;;;;;4162149;28;20400;-75
2021/06/02 01:18:35;;;;;;;16.00;10.98;;;13.00;99.90;;;;;;4163391;28;19940;-73
2021/06/02 01:20:37;;;;;;;15.32;11.95;;;13.10;99.90;;;;;;4163674;28;20370;-74
2021/06/02 01:22:39;;;;;;;18.02;11.32;;;13.10;99.90;;;;;;4163596;28;20028;-74
2021/06/02 01:24:40;;;;;;;16.35;11.38;;;13.10;99.90;;;;;;4163218;28;20029;-74
2021/06/02 01:26:42;;;;;;;14.13;11.82;;;13.30;99.90;;;;;;4163581;28;20071;-74
2021/06/02 01:28:42;;;;;;;16.25;13.00;;;13.40;99.90;;;;;;4162312;28;20049;-73
2021/06/02 01:30:43;;;;;;;15.35;12.02;;;13.50;99.90;;;;;;4163373;28;20504;-74
2021/06/02 01:32:59;;;;;;;16.25;11.77;;;13.50;99.90;;;;;;4163668;28;20468;-74
2021/06/02 01:35:17;;;;;;;14.18;11.20;;;13.50;99.90;;;;;;4162975;28;20206;-74
2021/06/02 01:37:52;;;;;;;12.75;11.43;;;13.60;99.90;;;;;;4163290;28;20030;-74
2021/06/02 01:40:10;;;;;;;14.55;11.25;;;13.50;99.90;;;;;;4163417;28;20033;-74
2021/06/02 01:42:32;;;;;;;15.35;12.73;;;13.60;99.90;;;;;;4162936;28;20030;-74
2021/06/02 01:44:57;;;;;;;13.60;11.95;;;13.50;99.90;;;;;;4163384;28;20036;-75
2021/06/02 01:47:01;;;;;;;21.55;12.88;;;13.50;99.90;;;;;;4150412;28;20481;-74
2021/06/02 01:49:07;;;;;;;13.30;11.45;;;13.60;99.90;;;;;;4163039;28;20045;-74
2021/06/02 01:51:44;;;;;;;17.80;13.43;;;13.60;99.90;;;;;;4163005;28;20041;-74
2021/06/02 01:54:22;;;;;;;18.67;13.60;;;13.60;99.90;;;;;;4160885;28;20029;-73
2021/06/02 01:56:35;;;;;;;18.42;12.40;;;13.50;99.90;;;;;;4161609;28;20036;-75
2021/06/02 01:59:02;;;;;;;20.35;14.40;;;13.50;99.90;;;;;;4162884;28;20184;-72
2021/06/02 02:01:37;;;;;;;19.02;13.65;;;13.50;99.90;;;;;;4161606;28;20404;-73
2021/06/02 02:04:11;;;;;;;16.27;12.90;;;13.40;99.90;;;;;;4161987;28;20499;-75
2021/06/02 02:06:26;;;;;;;;;;;13.30;99.90;;;;;;4162673;28;20037;-75
2021/06/02 02:08:40;;;;;;;16.17;12.80;;;13.30;99.90;;;;;;4161185;28;19915;-74
2021/06/02 02:10:58;;;;;;;16.85;12.88;;;13.50;99.90;;;;;;4162212;28;20100;-74
2021/06/02 02:13:20;;;;;;;21.13;15.10;;;13.40;99.90;;;;;;4168438;28;20082;-74
2021/06/02 02:15:33;;;;;;;18.95;12.90;;;13.30;99.90;;;;;;4162387;28;20033;-74
2021/06/02 02:17:48;;;;;;;21.15;15.23;;;13.20;99.90;;;;;;4161129;28;20116;-74
2021/06/02 02:20:25;;;;;;;16.05;14.35;;;13.20;99.90;;;;;;4162944;28;20033;-73
2021/06/02 02:22:59;;;;;;;18.20;12.93;;;13.10;99.90;;;;;;4161784;28;20048;-75
2021/06/02 02:25:06;;;;;;;18.15;13.93;;;12.90;99.90;;;;;;4161015;28;20033;-75
2021/06/02 02:27:31;;;;;;;21.75;13.80;;;13.10;99.90;;;;;;4157781;28;20037;-73
2021/06/02 02:29:50;;;;;;;15.02;13.27;;;13.20;99.90;;;;;;4162665;28;20476;-73
2021/06/02 02:32:09;;;;;;;20.60;14.90;;;13.20;99.90;;;;;;4162703;28;20096;-75
2021/06/02 02:34:48;;;;;;;17.75;14.32;;;13.10;99.90;;;;;;4159476;28;20069;-74
2021/06/02 02:36:57;;;;;;;18.25;13.05;;;13.10;99.90;;;;;;4152193;28;20041;-74
2021/06/02 02:39:30;;;;;;;21.70;14.02;;;13.00;99.90;;;;;;4162742;28;20354;-74
2021/06/02 02:41:48;;;;;;;20.38;13.82;;;12.90;99.90;;;;;;4161191;28;20033;-73
2021/06/02 02:44:23;;;;;;;17.38;14.25;;;12.80;99.90;;;;;;4161723;28;20117;-73
2021/06/02 02:46:39;;;;;;;17.42;14.13;;;12.80;99.90;;;;;;4162526;28;20084;-75
2021/06/02 02:49:01;;;;;;;18.25;14.55;;;12.80;99.90;;;;;;4162596;28;20457;-74
2021/06/02 02:51:25;;;;;;;20.58;14.57;;;12.80;99.90;;;;;;4160669;28;20037;-74
2021/06/02 02:53:44;;;;;;;21.05;13.40;;;12.80;99.90;;;;;;4161013;28;20033;-74
2021/06/02 02:55:54;;;;;;;18.25;13.43;;;12.70;99.90;;;;;;4151591;28;20029;-72
2021/06/02 02:58:06;;;;;;;17.77;13.98;;;12.60;99.90;;;;;;4162955;28;20034;-74
2021/06/02 03:00:07;;;;;;;19.65;14.50;;;12.60;99.90;;;;;;4160972;28;20594;-73
2021/06/02 03:02:15;;;;;;;20.00;13.98;;;12.50;99.90;;;;;;4161196;28;20061;-73
2021/06/02 03:04:23;;;;;;;19.08;14.70;;;12.50;99.90;;;;;;4162750;28;20022;-75
2021/06/02 03:06:32;;;;;;;20.00;14.40;;;12.40;99.90;;;;;;4162675;28;20469;-75
2021/06/02 03:09:01;;;;;;;23.30;15.15;;;12.40;99.90;;;;;;4160894;28;20465;-75
2021/06/02 03:11:43;;;;;;;28.63;14.52;;;12.30;99.90;;;;;;4161262;28;20580;-75
2021/06/02 03:13:59;;;;;;;17.95;13.48;;;12.30;99.90;;;;;;4148554;28;20050;-74
2021/06/02 03:16:05;;;;;;;18.60;14.65;;;12.30;99.90;;;;;;4161272;28;20040;-74
2021/06/02 03:18:33;;;;;;;19.23;14.90;;;12.20;99.90;;;;;;4162384;28;20026;-74
2021/06/02 03:20:40;;;;;;;18.63;13.52;;;12.30;99.90;;;;;;4162458;28;20036;-74
2021/06/02 03:23:06;;;;;;;23.75;14.98;;;12.30;99.90;;;;;;4162556;28;20119;-74
2021/06/02 03:25:22;;;;;;;19.05;15.23;;;12.30;99.90;;;;;;4169206;28;20037;-75
2021/06/02 03:27:38;;;;;;;19.38;13.45;;;12.30;99.90;;;;;;4161667;28;20034;-74
2021/06/02 03:30:07;;;;;;;22.17;14.60;;;12.20;99.90;;;;;;4161103;28;20112;-74
2021/06/02 03:32:22;;;;;;;21.73;15.73;;;12.30;99.90;;;;;;4162547;28;20028;-74
2021/06/02 03:34:25;;;;;;;19.90;14.07;;;12.30;99.90;;;;;;4163908;28;20087;-75
2021/06/02 03:37:00;;;;;;;22.95;15.88;;;12.50;99.90;;;;;;4164086;28;20068;-75
2021/06/02 03:39:06;;;;;;;21.15;15.52;;;12.80;99.90;;;;;;4163275;28;20112;-74
2021/06/02 03:41:35;;;;;;;18.23;14.25;;;12.90;99.90;;;;;;4165195;28;20041;-74
2021/06/02 03:43:53;;;;;;;15.23;12.15;;;13.00;99.90;;;;;;4165364;28;20507;-73
2021/06/02 03:46:11;;;;;;;19.92;14.55;;;12.90;99.90;;;;;;4165378;28;20435;-73
2021/06/02 03:48:36;;;;;;;18.40;13.75;;;12.90;99.90;;;;;;4164928;28;20030;-73
2021/06/02 03:51:09;;;;;;;20.27;15.20;;;12.90;99.90;;;;;;4163829;28;20094;-74
2021/06/02 03:53:40;;;;;;;19.38;16.10;;;13.00;99.90;;;;;;4164550;28;20061;-74
2021/06/02 03:56:13;;;;;;;22.00;15.48;;;13.00;99.90;;;;;;4171404;28;20036;-73
2021/06/02 03:58:27;;;;;;;19.20;15.07;;;13.00;99.90;;;;;;4164490;28;20034;-74
2021/06/02 04:00:36;;;;;;;17.02;15.20;;;13.10;99.90;;;;;;4164999;28;20070;-74
2021/06/02 04:03:00;;;;;;;21.10;16.08;;;13.10;99.90;;;;;;4163666;28;20033;-74
2021/06/02 04:05:18;;;;;;;19.83;15.15;;;13.10;99.90;;;;;;4165024;28;20337;-74
2021/06/02 04:07:27;;;;;;;18.48;15.30;;;13.10;99.90;;;;;;4164811;28;20476;-74
2021/06/02 04:09:32;;;;;;;18.45;14.57;;;13.20;99.90;;;;;;4164994;28;20042;-74
2021/06/02 04:12:01;;;;;;;21.02;14.73;;;13.20;99.90;;;;;;4164886;28;20112;-74
2021/06/02 04:14:05;;;;;;;19.30;15.35;;;13.30;99.90;;;;;;4164526;28;20041;-74
2021/06/02 04:16:12;;;;;;;16.98;14.15;;;13.40;99.90;;;;;;4164888;28;20034;-74
2021/06/02 04:18:14;;;;;;;18.92;15.25;;;13.40;99.90;;;;;;4163622;28;20550;-74
2021/06/02 04:20:18;;;;;;;18.98;15.57;;;13.50;99.90;;;;;;4163098;28;20044;-74
2021/06/02 04:22:20;;;;;;;19.67;16.00;;;13.50;99.90;;;;;;4164821;28;20376;-73
2021/06/02 04:24:23;;;;;;;22.38;15.02;;;13.60;99.90;;;;;;4164725;28;22339;-74
2021/06/02 04:26:29;;;;;;;18.52;16.08;;;13.70;99.90;;;;;;4164668;28;20523;-74
2021/06/02 04:28:37;;;;;;;23.60;15.52;;;13.90;99.90;;;;;;4163620;28;20033;-74
2021/06/02 04:30:46;;;;;;;21.85;16.33;;;14.10;99.90;;;;;;4162190;28;20033;-74
2021/06/02 04:32:47;;;;;;;29.65;17.35;;;14.30;99.90;;;;;;4161221;28;20046;-74
2021/06/02 04:34:51;;;;;;;17.80;15.25;;;14.40;99.90;;;;;;4162131;28;20041;-74
2021/06/02 04:36:58;;;;;;;21.23;15.73;;;14.60;99.90;;;;;;4164139;28;20033;-75
2021/06/02 04:39:00;;;;;;;17.85;14.27;;;14.70;99.90;;;;;;4162614;28;20029;-74
2021/06/02 04:41:02;;;;;;;21.60;16.25;;;14.70;99.90;;;;;;4164340;28;20099;-74
2021/06/02 04:43:03;;;;;;;23.05;16.45;;;14.80;99.90;;;;;;4162087;28;20041;-75
2021/06/02 04:45:18;;;;;;;20.60;15.75;;;14.90;99.90;;;;;;4159368;28;20030;-74
2021/06/02 04:47:20;;;;;;;19.35;15.43;;;15.00;99.90;;;;;;4162175;28;20029;-74
2021/06/02 04:49:48;;;;;;;20.30;15.68;;;15.00;99.90;;;;;;4162538;28;20143;-74
2021/06/02 04:52:10;;;;;;;19.48;14.27;;;15.10;99.90;;;;;;4160481;28;20160;-74
2021/06/02 04:54:35;;;;;;;21.38;15.70;;;15.20;99.90;;;;;;4158029;28;20428;-75
2021/06/02 04:56:55;;;;;;;23.38;15.27;;;15.30;99.90;;;;;;4163146;28;20559;-74
2021/06/02 04:59:13;;;;;;;22.85;15.40;;;15.30;99.90;;;;;;4162277;28;20065;-74
2021/06/02 05:01:28;;;;;;;22.75;16.30;;;15.40;99.90;;;;;;4161951;28;20036;-74
2021/06/02 05:04:06;;;;;;;19.35;15.38;;;15.60;99.90;;;;;;4171493;28;20485;-74
2021/06/02 05:06:25;;;;;;;23.67;16.33;;;15.70;99.90;;;;;;4153006;28;20369;-74
2021/06/02 05:08:31;;;;;;;19.92;15.50;;;15.80;99.90;;;;;;4164080;28;20030;-74
2021/06/02 05:10:38;;;;;;;19.67;15.68;;;15.90;99.90;;;;;;4163901;28;20037;-74
2021/06/02 05:13:27;;;;;;;18.60;14.63;;;16.00;99.90;;;;;;4163657;28;20102;-74
2021/06/02 05:15:58;;;;;;;22.60;14.70;;;16.10;99.90;;;;;;4158540;28;20049;-74
2021/06/02 05:18:23;;;;;;;17.48;14.50;;;16.20;99.90;;;;;;4162862;28;20029;-74
2021/06/02 05:23:17;;;;;;;20.23;15.15;;;16.30;99.90;;;;;;4160790;28;20451;-75
2021/06/02 05:25:40;;;;;;;18.52;15.15;;;16.40;99.90;;;;;;4161419;28;20037;-73
2021/06/02 05:28:18;;;;;;;19.23;14.25;;;16.40;99.90;;;;;;4177742;28;20116;-73
2021/06/02 05:30:36;;;;;;;16.42;14.18;;;16.40;99.90;;;;;;4150866;28;20117;-74
2021/06/02 05:33:03;;;;;;;19.45;14.55;;;16.40;99.90;;;;;;4161846;28;20471;-74
2021/06/02 05:36:04;;;;;;;20.17;14.27;;;16.50;99.90;;;;;;4131474;28;20116;-73
2021/06/02 05:38:42;;;;;;;18.50;13.27;;;16.50;99.90;;;;;;4158189;28;20034;-74
2021/06/02 05:41:09;;;;;;;20.92;13.90;;;16.70;99.90;;;;;;4163575;28;20032;-73
2021/06/02 05:43:32;;;;;;;17.48;13.38;;;16.80;99.90;;;;;;4158984;28;20025;-74
2021/06/02 05:46:08;;;;;;;15.50;13.07;;;16.90;99.90;;;;;;4163011;28;20480;-74
2021/06/02 05:48:38;;;;;;;22.67;12.90;;;17.10;99.90;;;;;;4159894;28;20034;-73
2021/06/02 05:50:59;;;;;;;18.90;12.88;;;17.20;99.90;;;;;;4141469;28;20044;-73
2021/06/02 05:53:15;;;;;;;14.70;12.52;;;17.30;99.90;;;;;;4132055;28;20069;-73
2021/06/02 05:55:35;;;;;;;21.17;13.15;;;17.40;99.90;;;;;;4178000;28;20468;-74
2021/06/02 05:58:13;;;;;;;16.45;12.60;;;17.40;99.90;;;;;;4177634;28;20116;-73
2021/06/02 06:00:49;;;;;;;19.88;11.88;;;17.50;99.90;;;;;;4162362;28;20049;-73
2021/06/02 06:03:27;;;;;;;14.95;12.07;;;17.60;99.90;;;;;;4153438;28;20065;-74
2021/06/02 06:05:55;;;;;;;18.40;11.73;;;17.70;99.90;;;;;;4160645;28;20056;-73
2021/06/02 06:08:27;;;;;;;15.25;12.65;;;17.70;99.90;;;;;;4161890;28;20038;-74
2021/06/02 06:11:27;;;;;;;13.40;11.38;;;17.70;99.90;;;;;;4160799;28;20053;-74
2021/06/02 06:13:48;;;;;;;16.85;11.23;;;17.80;99.90;;;;;;4090636;28;20039;-74
2021/06/02 06:16:11;;;;;;;14.77;11.68;;;17.90;99.90;;;;;;4096130;28;20031;-74
2021/06/02 06:18:58;;;;;;;13.03;11.00;;;18.00;99.90;;;;;;4124728;28;20520;-74
2021/06/02 06:21:26;;;;;;;12.93;10.88;;;18.00;99.90;;;;;;4152115;28;20033;-74
2021/06/02 06:24:04;;;;;;;19.52;10.10;;;18.10;99.90;;;;;;4162351;28;20041;-74
2021/06/02 06:26:30;;;;;;;13.98;10.48;;;18.20;99.90;;;;;;4160284;28;20048;-74
2021/06/02 06:28:38;;;;;;;16.58;11.00;;;18.30;99.90;;;;;;4159668;28;20129;-74
2021/06/02 06:30:41;;;;;;;16.77;11.95;;;18.30;99.90;;;;;;4162456;28;20029;-74
2021/06/02 06:32:44;;;;;;;13.02;10.45;;;18.50;99.90;;;;;;4151949;28;20060;-73
2021/06/02 06:34:49;;;;;;;15.23;10.75;;;18.50;99.90;;;;;;4147306;28;20038;-73
2021/06/02 06:36:55;;;;;;;14.20;10.63;;;18.60;99.90;;;;;;4156867;28;20068;-73
2021/06/02 06:39:24;;;;;;;12.52;10.25;;;18.60;99.90;;;;;;4159807;28;20033;-74
2021/06/02 06:41:27;;;;;;;14.25;10.48;;;18.70;99.90;;;;;;4148963;28;20390;-74
2021/06/02 06:43:31;;;;;;;16.38;10.80;;;18.70;99.90;;;;;;4159316;28;20033;-74
2021/06/02 06:45:34;;;;;;;12.35;10.23;;;18.80;99.90;;;;;;4157880;28;20034;-74
2021/06/02 06:47:35;;;;;;;;;;;18.90;99.90;;;;;;4161517;28;20036;-74
2021/06/02 06:49:38;;;;;;;11.60;9.02;;;18.90;99.90;;;;;;4162273;28;19928;-74
2021/06/02 06:51:42;;;;;;;11.25;8.95;;;19.10;99.90;;;;;;4156431;28;20361;-74
2021/06/02 06:53:43;;;;;;;10.00;8.95;;;19.20;99.90;;;;;;4159355;28;20124;-74
2021/06/02 06:55:45;;;;;;;10.23;9.23;;;19.20;99.90;;;;;;4162144;28;20029;-74
2021/06/02 06:57:46;;;;;;;10.32;9.32;;;19.20;99.90;;;;;;4160199;28;20512;-74
2021/06/02 06:59:48;;;;;;;13.88;8.82;;;19.30;99.90;;;;;;4162006;28;20045;-74
2021/06/02 07:01:50;;;;;;;10.80;8.90;;;19.40;99.90;;;;;;4162341;28;20044;-74
2021/06/02 07:03:51;;;;;;;12.68;9.43;;;19.50;99.90;;;;;;4161996;28;20168;-73
2021/06/02 07:05:54;;;;;;;14.30;9.43;;;19.60;99.90;;;;;;4160059;28;20037;-73
2021/06/02 07:07:55;;;;;;;11.85;9.88;;;19.70;99.90;;;;;;4158297;28;20037;-73
2021/06/02 07:09:56;;;;;;;10.60;9.32;;;19.80;99.90;;;;;;4164580;28;20109;-73
2021/06/02 07:11:57;;;;;;;13.30;9.40;;;19.80;99.90;;;;;;4165284;28;20029;-73
2021/06/02 07:13:58;;;;;;;15.75;9.38;;;19.90;99.90;;;;;;4163581;28;20044;-73
2021/06/02 07:16:01;;;;;;;10.77;7.68;;;19.90;99.90;;;;;;4165265;28;20017;-73
2021/06/02 07:18:03;;;;;;;11.73;9.63;;;20.00;99.90;;;;;;4164826;28;20030;-73
2021/06/02 07:20:05;;;;;;;10.23;9.13;;;20.10;99.90;;;;;;4165165;28;20030;-73
2021/06/02 07:22:06;;;;;;;11.35;8.63;;;20.20;99.90;;;;;;4165136;28;20370;-73
2021/06/02 07:24:08;;;;;;;12.93;8.35;;;20.30;99.90;;;;;;4160944;28;20018;-73
2021/06/02 07:26:09;;;;;;;17.73;9.82;;;20.40;99.90;;;;;;4165240;28;20400;-73
2021/06/02 07:28:13;;;;;;;10.20;8.75;;;20.50;99.90;;;;;;4165156;28;20101;-72
2021/06/02 07:30:15;;;;;;;13.23;8.77;;;20.60;99.90;;;;;;4164890;28;20037;-73
2021/06/02 07:32:16;;;;;;;10.35;8.27;;;20.70;99.90;;;;;;4160766;28;20149;-72
2021/06/02 07:34:17;;;;;;;9.77;8.75;;;20.80;99.90;;;;;;4164535;28;20049;-72
2021/06/02 07:36:17;;;;;;;9.07;7.70;;;20.90;99.90;;;;;;4164506;28;20120;-72
2021/06/02 07:38:18;;;;;;;10.43;8.25;;;21.00;99.90;;;;;;4162148;28;20029;-72
2021/06/02 07:40:19;;;;;;;10.38;7.47;;;21.10;99.90;;;;;;4156486;28;20161;-73
2021/06/02 07:42:20;;;;;;;10.65;8.82;;;21.30;99.90;;;;;;4162699;28;20029;-72
2021/06/02 07:44:20;;;;;;;7.97;7.18;;;21.50;99.90;;;;;;4164815;28;20060;-74
2021/06/02 07:46:21;;;;;;;8.35;7.53;;;21.50;99.90;;;;;;4161793;28;20045;-74
2021/06/02 07:48:22;;;;;;;10.60;7.35;;;21.70;99.90;;;;;;4161992;28;20135;-74
2021/06/02 07:50:23;;;;;;;8.77;7.88;;;21.90;99.90;;;;;;4161395;28;20113;-74
2021/06/02 07:52:25;;;;;;;8.45;6.55;;;22.00;99.90;;;;;;4162322;28;20462;-74
2021/06/02 07:54:27;;;;;;;7.57;6.63;;;22.20;99.90;;;;;;4164262;28;20029;-74
2021/06/02 07:56:28;;;;;;;10.40;6.63;;;22.30;99.90;;;;;;4163279;28;20032;-74
2021/06/02 07:58:28;;;;;;;10.98;5.78;;;22.40;99.90;;;;;;4164313;28;20029;-74
2021/06/02 08:00:29;;;;;;;8.18;5.78;;;22.50;99.90;;;;;;4151492;28;20033;-75
2021/06/02 08:02:30;;;;;;;6.32;5.35;;;22.70;99.90;;;;;;4157911;28;20109;-74
2021/06/02 08:04:31;;;;;;;7.43;5.88;;;22.90;99.90;;;;;;4164381;28;20022;-74
2021/06/02 08:06:32;;;;;;;10.52;6.10;;;23.00;99.90;;;;;;4164359;28;20034;-75
2021/06/02 08:08:32;;;;;;;7.55;5.68;;;23.10;99.90;;;;;;4164209;28;20029;-73
2021/06/02 08:10:33;;;;;;;9.02;6.47;;;23.10;99.90;;;;;;4162479;28;20104;-73
2021/06/02 08:12:34;;;;;;;7.60;5.82;;;23.30;99.90;;;;;;4162678;28;20029;-73
2021/06/02 08:14:35;;;;;;;13.65;6.35;;;23.50;99.90;;;;;;4162572;28;20329;-73
2021/06/02 08:16:36;;;;;;;7.28;5.60;;;23.60;99.90;;;;;;4161233;28;20022;-72
2021/06/02 08:18:37;;;;;;;8.07;7.00;;;23.50;99.90;;;;;;4162654;28;20031;-73
2021/06/02 08:20:37;;;;;;;8.63;5.97;;;23.50;99.90;;;;;;4161518;28;20107;-73
2021/06/02 08:22:38;;;;;;;6.03;5.43;;;23.50;99.90;;;;;;4163683;28;20022;-73
2021/06/02 08:24:40;;;;;;;7.47;6.00;;;23.50;99.90;;;;;;4162330;28;20021;-73
2021/06/02 08:26:41;;;;;;;9.05;6.15;;;23.80;99.90;;;;;;4163694;28;20032;-73
2021/06/02 08:28:42;;;;;;;8.43;5.50;;;24.00;99.90;;;;;;4164745;28;20029;-72
2021/06/02 08:30:43;;;;;;;6.85;5.88;;;24.10;99.90;;;;;;4163584;28;20039;-73
2021/06/02 08:32:44;;;;;;;7.03;5.28;;;24.20;99.90;;;;;;4163950;28;20113;-72
2021/06/02 08:34:45;;;;;;;8.32;5.35;;;24.40;99.90;;;;;;4159788;28;20029;-74
2021/06/02 08:36:45;;;;;;;5.40;4.90;;;24.60;99.90;;;;;;4159397;28;20617;-73
2021/06/02 08:38:46;;;;;;;8.20;5.60;;;24.80;99.90;;;;;;4168667;28;20048;-73
2021/06/02 08:40:47;;;;;;;6.75;5.05;;;24.80;99.90;;;;;;4162283;28;20112;-73
2021/06/02 08:42:48;;;;;;;6.57;5.10;;;25.00;99.90;;;;;;4162368;28;20034;-73
2021/06/02 08:44:49;;;;;;;11.88;5.70;;;25.20;99.90;;;;;;4162643;28;20018;-73
2021/06/02 08:46:49;;;;;;;8.93;5.38;;;25.20;99.90;;;;;;4163793;28;20037;-73
2021/06/02 08:48:50;;;;;;;5.97;5.20;;;25.20;99.90;;;;;;4162476;28;20672;-72
2021/06/02 08:50:51;;;;;;;8.45;5.40;;;25.30;99.90;;;;;;4165871;28;20480;-73
2021/06/02 08:52:52;;;;;;;6.93;5.18;;;25.30;99.90;;;;;;4164060;28;20429;-73
2021/06/02 08:54:55;;;;;;;6.28;5.30;;;25.40;99.90;;;;;;4163836;28;20034;-73
2021/06/02 08:56:56;;;;;;;6.85;5.72;;;25.60;99.90;;;;;;4163674;28;20449;-73
2021/06/02 08:58:57;;;;;;;8.30;5.70;;;25.70;99.90;;;;;;4163403;28;20049;-74
2021/06/02 09:00:57;;;;;;;7.70;5.57;;;25.50;99.90;;;;;;4163670;28;20442;-73
2021/06/02 09:02:58;;;;;;;8.75;5.05;;;25.40;99.90;;;;;;4163356;28;20045;-73
2021/06/02 09:04:59;;;;;;;9.07;5.38;;;25.60;99.90;;;;;;4163847;28;20037;-74
2021/06/02 09:07:05;;;;;;;6.13;5.53;;;25.80;99.90;;;;;;4162148;28;20041;-72
2021/06/02 09:09:06;;;;;;;6.88;5.13;;;25.90;99.90;;;;;;4158000;28;20061;-75
2021/06/02 09:11:18;;;;;;;8.93;4.95;;;26.00;99.90;;;;;;4162489;28;20057;-73
2021/06/02 09:13:22;;;;;;;7.57;5.73;;;26.10;99.90;;;;;;4162904;28;20057;-74
2021/06/02 09:15:23;;;;;;;7.60;5.30;;;26.10;99.90;;;;;;4162552;28;20263;-73
2021/06/02 09:17:24;;;;;;;7.10;5.72;;;26.20;99.90;;;;;;4160724;28;20377;-73
2021/06/02 09:19:43;;;;;;;6.85;5.15;;;26.40;99.90;;;;;;4162869;28;20099;-72
2021/06/02 09:21:44;;;;;;;5.82;5.32;;;26.60;99.90;;;;;;4160273;28;20084;-72
2021/06/02 09:23:45;;;;;;;6.55;5.07;;;26.70;99.90;;;;;;4162319;28;20451;-72
2021/06/02 09:25:46;;;;;;;6.05;5.45;;;26.80;99.90;;;;;;4158478;28;20685;-73
2021/06/02 09:27:54;;;;;;;6.55;4.68;;;26.80;99.90;;;;;;4162993;28;20030;-75
2021/06/02 09:29:56;;;;;;;6.72;5.00;;;26.90;99.90;;;;;;4162731;28;20053;-72
2021/06/02 09:31:56;;;;;;;8.82;5.68;;;26.90;98.60;;;;;;4162171;28;20042;-73
2021/06/02 09:33:59;;;;;;;10.18;5.47;;;26.70;94.90;;;;;;4162205;28;20381;-72
2021/06/02 09:36:06;;;;;;;6.78;4.60;;;26.80;92.70;;;;;;4160640;28;20064;-72
2021/06/02 09:38:08;;;;;;;8.40;6.38;;;26.90;93.10;;;;;;4160630;28;20423;-73
2021/06/02 09:40:20;;;;;;;6.85;6.10;;;27.00;93.40;;;;;;4174866;28;20067;-73
2021/06/02 09:42:26;;;;;;;7.82;5.80;;;27.10;90.20;;;;;;4162803;28;20120;-72
2021/06/02 09:44:29;;;;;;;8.40;5.25;;;27.10;93.40;;;;;;4163197;28;20472;-73
2021/06/02 09:46:31;;;;;;;13.95;6.45;;;27.20;93.80;;;;;;4160108;28;20116;-73
2021/06/02 09:48:47;;;;;;;9.85;4.75;;;27.10;93.50;;;;;;4162088;28;20033;-73
2021/06/02 09:50:47;;;;;;;7.05;4.88;;;27.30;90.70;;;;;;4177925;28;20368;-73
2021/06/02 09:52:50;;;;;;;8.57;5.65;;;27.40;89.60;;;;;;4156115;28;20030;-74
2021/06/02 09:54:50;;;;;;;12.38;6.38;;;27.70;91.00;;;;;;4160042;28;20030;-72
2021/06/02 09:56:51;;;;;;;5.50;4.93;;;27.70;91.20;;;;;;4161604;28;20040;-74
2021/06/02 09:58:55;;;;;;;7.07;5.82;;;27.60;89.00;;;;;;4161293;28;20057;-73
2021/06/02 10:00:59;;;;;;;6.28;4.70;;;27.80;87.20;;;;;;4159156;28;20033;-73
2021/06/02 10:03:15;;;;;;;6.13;4.93;;;27.90;83.90;;;;;;4162610;28;20072;-73
2021/06/02 10:05:16;;;;;;;7.03;4.30;;;28.20;80.70;;;;;;4162039;28;20056;-72
2021/06/02 10:07:19;;;;;;;5.30;4.45;;;28.30;79.20;;;;;;4161666;28;20029;-73
2021/06/02 10:09:27;;;;;;;6.43;4.00;;;28.50;74.70;;;;;;4162568;28;20087;-72
2021/06/02 10:11:30;;;;;;;4.60;4.10;;;28.60;76.80;;;;;;4162734;28;20464;-73
2021/06/02 10:13:31;;;;;;;5.20;4.07;;;28.80;69.50;;;;;;4162609;28;20025;-73
2021/06/02 10:15:34;;;;;;;7.50;4.20;;;28.70;69.70;;;;;;4162098;28;20033;-73
2021/06/02 10:17:37;;;;;;;5.43;4.40;;;29.00;68.80;;;;;;4162400;28;20033;-73
2021/06/02 10:19:42;;;;;;;5.47;4.88;;;29.20;68.40;;;;;;4160881;28;20026;-73
2021/06/02 10:21:49;;;;;;;9.93;4.50;;;29.50;67.80;;;;;;4162390;28;20030;-73
2021/06/02 10:23:49;;;;;;;7.57;5.07;;;29.30;70.10;;;;;;4162559;28;20029;-73
2021/06/02 10:25:51;;;;;;;12.02;6.07;;;29.00;68.60;;;;;;4162295;28;20048;-73
2021/06/02 10:27:54;;;;;;;4.77;4.37;;;29.20;67.70;;;;;;4161356;28;20033;-73
2021/06/02 10:29:56;;;;;;;5.32;4.25;;;29.40;70.90;;;;;;4162581;28;20099;-73
2021/06/02 10:31:56;;;;;;;7.50;5.37;;;29.80;69.40;;;;;;4162532;28;20484;-72
2021/06/02 10:33:57;;;;;;;6.20;4.72;;;30.40;65.60;;;;;;4162577;28;20033;-73
2021/06/02 10:36:00;;;;;;;6.22;4.18;;;30.50;65.40;;;;;;4160863;28;20041;-73
2021/06/02 10:38:02;;;;;;;8.02;4.90;;;30.60;66.90;;;;;;4151642;28;20088;-74
2021/06/02 10:40:11;;;;;;;6.00;4.07;;;30.30;65.10;;;;;;4162329;28;20037;-73
2021/06/02 10:42:37;;;;;;;5.88;4.55;;;29.90;66.20;;;;;;4176998;28;20041;-73
2021/06/02 10:44:41;;;;;;;6.47;4.25;;;29.80;64.50;;;;;;4162616;28;20048;-73
2021/06/02 10:46:45;;;;;;;7.10;5.30;;;29.40;64.60;;;;;;4165447;28;20447;-73
2021/06/02 10:48:53;;;;;;;5.55;4.60;;;29.90;65.70;;;;;;4179958;28;20409;-73
2021/06/02 10:50:54;;;;;;;4.43;4.03;;;30.60;63.70;;;;;;4164557;28;20140;-73
2021/06/02 10:52:54;;;;;;;5.78;4.28;;;30.70;60.90;;;;;;4163697;28;20417;-73
2021/06/02 10:54:55;;;;;;;5.75;3.88;;;30.60;60.20;;;;;;4163507;28;20033;-73
2021/06/02 10:56:59;;;;;;;4.28;3.88;;;30.50;60.00;;;;;;4178236;28;20087;-73
2021/06/02 10:59:01;;;;;;;5.20;4.18;;;30.40;59.40;;;;;;4162219;28;20045;-74
2021/06/02 11:01:04;;;;;;;8.10;3.95;;;30.80;59.20;;;;;;4164015;28;20119;-74
2021/06/02 11:03:28;;;;;;;7.65;4.43;;;31.30;58.50;;;;;;4164485;28;20033;-74
2021/06/02 11:05:29;;;;;;;5.35;4.78;;;31.00;58.60;;;;;;4162459;28;20093;-73
2021/06/02 11:07:33;;;;;;;6.13;4.13;;;31.10;58.80;;;;;;4165398;28;20175;-73
2021/06/02 11:10:02;;;;;;;4.78;3.90;;;31.10;59.40;;;;;;4158955;28;20128;-73